Terminal Aerodrome Forecast
Issued by NWS Corpus Christi, TX

Home | Current Version | Previous Version | Text Only | Print | Product List | Glossary On
Versions: 1 2 3 4 5 6 7 8 9 10 11 12 13 14 15 16 17 18 19 20 21 22 23 24 25
000
FTUS44 KCRP 281740
TAFVCT
TAF
KVCT 281740Z 2818/2918 15012G20KT P6SM VCSH SCT030 BKN040
      TEMPO 2818/2821 5SM -TSRA BR SCT025 BKN035CB
     FM290200 14009KT P6SM BKN022
     FM290800 VRB06KT 5SM BR VCSH SCT015 BKN028
      TEMPO 2911/2914 2SM BR
     FM291600 15013KT P6SM BKN030=

USA.gov is the U.S. government's official web portal to all federal, state and local government web resources and services.